sensor_id;sensor_type;location;lat;lon;timestamp;temperature;humidity
11838;DHT22;5978;51.020;6.764;2022-07-30T00:01:58;19.30;99.90
11838;DHT22;5978;51.020;6.764;2022-07-30T00:04:23;19.20;99.90
11838;DHT22;5978;51.020;6.764;2022-07-30T00:06:49;19.10;99.90
11838;DHT22;5978;51.020;6.764;2022-07-30T00:09:15;19.00;99.90
11838;DHT22;5978;51.020;6.764;2022-07-30T00:11:41;19.00;99.90
11838;DHT22;5978;51.020;6.764;2022-07-30T00:14:07;19.00;99.90
11838;DHT22;5978;51.020;6.764;2022-07-30T00:16:33;18.90;99.90
11838;DHT22;5978;51.020;6.764;2022-07-30T00:18:58;18.90;99.90
11838;DHT22;5978;51.020;6.764;2022-07-30T00:21:24;18.80;99.90
11838;DHT22;5978;51.020;6.764;2022-07-30T00:23:49;18.70;99.90
11838;DHT22;5978;51.020;6.764;2022-07-30T00:26:15;18.60;99.90
11838;DHT22;5978;51.020;6.764;2022-07-30T00:28:40;18.50;99.90
11838;DHT22;5978;51.020;6.764;2022-07-30T00:31:06;18.50;99.90
11838;DHT22;5978;51.020;6.764;2022-07-30T00:33:32;18.40;99.90
11838;DHT22;5978;51.020;6.764;2022-07-30T00:35:57;18.30;99.90
11838;DHT22;5978;51.020;6.764;2022-07-30T00:38:23;18.20;99.90
11838;DHT22;5978;51.020;6.764;2022-07-30T00:40:48;18.20;99.90
11838;DHT22;5978;51.020;6.764;2022-07-30T00:43:15;18.20;99.90
11838;DHT22;5978;51.020;6.764;2022-07-30T00:45:44;18.10;99.90
11838;DHT22;5978;51.020;6.764;2022-07-30T00:48:11;18.00;99.90
11838;DHT22;5978;51.020;6.764;2022-07-30T00:50:38;18.00;99.90
11838;DHT22;5978;51.020;6.764;2022-07-30T00:53:04;17.90;99.90
11838;DHT22;5978;51.020;6.764;2022-07-30T00:55:30;17.90;99.90
11838;DHT22;5978;51.020;6.764;2022-07-30T00:57:55;17.90;99.90
11838;DHT22;5978;51.020;6.764;2022-07-30T01:00:21;17.90;99.90
11838;DHT22;5978;51.020;6.764;2022-07-30T01:02:47;17.80;99.90
11838;DHT22;5978;51.020;6.764;2022-07-30T01:05:12;17.80;99.90
11838;DHT22;5978;51.020;6.764;2022-07-30T01:07:38;17.80;99.90
11838;DHT22;5978;51.020;6.764;2022-07-30T01:10:05;17.70;99.90
11838;DHT22;5978;51.020;6.764;2022-07-30T01:12:31;17.60;99.90
11838;DHT22;5978;51.020;6.764;2022-07-30T01:14:59;17.50;99.90
11838;DHT22;5978;51.020;6.764;2022-07-30T01:17:25;17.50;99.90
11838;DHT22;5978;51.020;6.764;2022-07-30T01:19:53;17.60;99.90
11838;DHT22;5978;51.020;6.764;2022-07-30T01:25:27;17.60;99.90
11838;DHT22;5978;51.020;6.764;2022-07-30T01:28:05;17.50;99.90
11838;DHT22;5978;51.020;6.764;2022-07-30T01:30:34;17.50;99.90
11838;DHT22;5978;51.020;6.764;2022-07-30T01:33:01;17.50;99.90
11838;DHT22;5978;51.020;6.764;2022-07-30T01:35:30;17.50;99.90
11838;DHT22;5978;51.020;6.764;2022-07-30T01:37:58;17.50;99.90
11838;DHT22;5978;51.020;6.764;2022-07-30T01:40:27;17.50;99.90
11838;DHT22;5978;51.020;6.764;2022-07-30T01:42:54;17.50;99.90
11838;DHT22;5978;51.020;6.764;2022-07-30T01:45:23;17.50;99.90
11838;DHT22;5978;51.020;6.764;2022-07-30T01:47:52;17.50;99.90
11838;DHT22;5978;51.020;6.764;2022-07-30T01:50:19;17.40;99.90
11838;DHT22;5978;51.020;6.764;2022-07-30T01:52:48;17.40;99.90
11838;DHT22;5978;51.020;6.764;2022-07-30T01:55:23;17.30;99.90
11838;DHT22;5978;51.020;6.764;2022-07-30T01:57:50;17.40;99.90
11838;DHT22;5978;51.020;6.764;2022-07-30T02:00:16;17.30;99.90
11838;DHT22;5978;51.020;6.764;2022-07-30T02:02:43;17.40;99.90
11838;DHT22;5978;51.020;6.764;2022-07-30T02:05:09;17.40;99.90
11838;DHT22;5978;51.020;6.764;2022-07-30T02:07:55;17.40;99.90
11838;DHT22;5978;51.020;6.764;2022-07-30T02:10:35;17.40;99.90
11838;DHT22;5978;51.020;6.764;2022-07-30T02:13:06;17.40;99.90
11838;DHT22;5978;51.020;6.764;2022-07-30T02:15:55;17.40;99.90
11838;DHT22;5978;51.020;6.764;2022-07-30T02:21:00;17.40;99.90
11838;DHT22;5978;51.020;6.764;2022-07-30T02:23:27;17.40;99.90
11838;DHT22;5978;51.020;6.764;2022-07-30T02:25:56;17.30;99.90
11838;DHT22;5978;51.020;6.764;2022-07-30T02:28:25;17.30;99.90
11838;DHT22;5978;51.020;6.764;2022-07-30T02:30:56;17.30;99.90
11838;DHT22;5978;51.020;6.764;2022-07-30T02:33:27;17.30;99.90
11838;DHT22;5978;51.020;6.764;2022-07-30T02:35:53;17.30;99.90
11838;DHT22;5978;51.020;6.764;2022-07-30T02:38:20;17.40;99.90
11838;DHT22;5978;51.020;6.764;2022-07-30T02:40:47;17.40;99.90
11838;DHT22;5978;51.020;6.764;2022-07-30T02:43:17;17.40;99.90
11838;DHT22;5978;51.020;6.764;2022-07-30T02:45:46;17.40;99.90
11838;DHT22;5978;51.020;6.764;2022-07-30T02:48:13;17.30;99.90
11838;DHT22;5978;51.020;6.764;2022-07-30T02:50:40;17.30;99.90
11838;DHT22;5978;51.020;6.764;2022-07-30T02:53:09;17.30;99.90
11838;DHT22;5978;51.020;6.764;2022-07-30T02:55:37;17.30;99.90
11838;DHT22;5978;51.020;6.764;2022-07-30T02:58:06;17.30;99.90
11838;DHT22;5978;51.020;6.764;2022-07-30T03:00:34;17.30;99.90
11838;DHT22;5978;51.020;6.764;2022-07-30T03:03:01;17.30;99.90
11838;DHT22;5978;51.020;6.764;2022-07-30T03:05:29;17.30;99.90
11838;DHT22;5978;51.020;6.764;2022-07-30T03:07:56;17.30;99.90
11838;DHT22;5978;51.020;6.764;2022-07-30T03:10:24;17.30;99.90
11838;DHT22;5978;51.020;6.764;2022-07-30T03:12:50;17.30;99.90
11838;DHT22;5978;51.020;6.764;2022-07-30T03:15:16;17.30;99.90
11838;DHT22;5978;51.020;6.764;2022-07-30T03:17:44;17.30;99.90
11838;DHT22;5978;51.020;6.764;2022-07-30T03:20:13;17.20;99.90
11838;DHT22;5978;51.020;6.764;2022-07-30T03:22:42;17.20;99.90
11838;DHT22;5978;51.020;6.764;2022-07-30T03:25:09;17.10;99.90
11838;DHT22;5978;51.020;6.764;2022-07-30T03:27:36;16.90;99.90
11838;DHT22;5978;51.020;6.764;2022-07-30T03:30:03;16.90;99.90
11838;DHT22;5978;51.020;6.764;2022-07-30T03:32:30;16.90;99.90
11838;DHT22;5978;51.020;6.764;2022-07-30T03:34:57;16.90;99.90
11838;DHT22;5978;51.020;6.764;2022-07-30T03:37:24;16.90;99.90
11838;DHT22;5978;51.020;6.764;2022-07-30T03:39:50;16.90;99.90
11838;DHT22;5978;51.020;6.764;2022-07-30T03:42:18;16.80;99.90
11838;DHT22;5978;51.020;6.764;2022-07-30T03:44:45;16.90;99.90
11838;DHT22;5978;51.020;6.764;2022-07-30T03:47:12;16.80;99.90
11838;DHT22;5978;51.020;6.764;2022-07-30T03:49:38;16.80;99.90
11838;DHT22;5978;51.020;6.764;2022-07-30T03:52:05;16.80;99.90
11838;DHT22;5978;51.020;6.764;2022-07-30T03:54:32;16.80;99.90
11838;DHT22;5978;51.020;6.764;2022-07-30T03:56:59;16.90;99.90
11838;DHT22;5978;51.020;6.764;2022-07-30T03:59:26;16.90;99.90
11838;DHT22;5978;51.020;6.764;2022-07-30T04:01:52;16.80;99.90
11838;DHT22;5978;51.020;6.764;2022-07-30T04:04:18;16.90;99.90
11838;DHT22;5978;51.020;6.764;2022-07-30T04:06:44;16.90;99.90
11838;DHT22;5978;51.020;6.764;2022-07-30T04:09:10;16.80;99.90
11838;DHT22;5978;51.020;6.764;2022-07-30T04:11:37;16.70;99.90
11838;DHT22;5978;51.020;6.764;2022-07-30T04:14:03;16.70;99.90
11838;DHT22;5978;51.020;6.764;2022-07-30T04:16:50;16.70;99.90
11838;DHT22;5978;51.020;6.764;2022-07-30T04:19:27;16.80;99.90
11838;DHT22;5978;51.020;6.764;2022-07-30T04:21:54;16.60;99.90
11838;DHT22;5978;51.020;6.764;2022-07-30T04:24:21;16.60;99.90
11838;DHT22;5978;51.020;6.764;2022-07-30T04:26:49;16.60;99.90
11838;DHT22;5978;51.020;6.764;2022-07-30T04:29:16;16.60;99.90
11838;DHT22;5978;51.020;6.764;2022-07-30T04:31:42;16.50;99.90
11838;DHT22;5978;51.020;6.764;2022-07-30T04:34:12;16.60;99.90
11838;DHT22;5978;51.020;6.764;2022-07-30T04:36:38;16.70;99.90
11838;DHT22;5978;51.020;6.764;2022-07-30T04:39:04;16.80;99.90
11838;DHT22;5978;51.020;6.764;2022-07-30T04:41:30;16.80;99.90
11838;DHT22;5978;51.020;6.764;2022-07-30T04:43:55;16.90;99.90
11838;DHT22;5978;51.020;6.764;2022-07-30T04:46:21;16.90;99.90
11838;DHT22;5978;51.020;6.764;2022-07-30T04:48:46;17.00;99.90
11838;DHT22;5978;51.020;6.764;2022-07-30T04:51:20;17.00;99.90
11838;DHT22;5978;51.020;6.764;2022-07-30T04:53:48;17.00;99.90
11838;DHT22;5978;51.020;6.764;2022-07-30T04:56:14;17.00;99.90
11838;DHT22;5978;51.020;6.764;2022-07-30T04:58:40;17.00;99.90
11838;DHT22;5978;51.020;6.764;2022-07-30T05:01:08;17.00;99.90
11838;DHT22;5978;51.020;6.764;2022-07-30T05:03:34;17.10;99.90
11838;DHT22;5978;51.020;6.764;2022-07-30T05:06:02;17.10;99.90
11838;DHT22;5978;51.020;6.764;2022-07-30T05:08:28;17.10;99.90
11838;DHT22;5978;51.020;6.764;2022-07-30T05:10:54;17.20;99.90
11838;DHT22;5978;51.020;6.764;2022-07-30T05:13:20;17.20;99.90
11838;DHT22;5978;51.020;6.764;2022-07-30T05:15:46;17.20;99.90
11838;DHT22;5978;51.020;6.764;2022-07-30T05:18:13;17.20;99.90
11838;DHT22;5978;51.020;6.764;2022-07-30T05:20:39;17.10;99.90
11838;DHT22;5978;51.020;6.764;2022-07-30T05:23:05;17.10;99.90
11838;DHT22;5978;51.020;6.764;2022-07-30T05:25:31;17.10;99.90
11838;DHT22;5978;51.020;6.764;2022-07-30T05:27:56;17.10;99.90
11838;DHT22;5978;51.020;6.764;2022-07-30T05:30:23;17.10;99.90
11838;DHT22;5978;51.020;6.764;2022-07-30T05:32:49;17.10;99.90
11838;DHT22;5978;51.020;6.764;2022-07-30T05:35:14;17.20;99.90
11838;DHT22;5978;51.020;6.764;2022-07-30T05:37:40;17.30;99.90
11838;DHT22;5978;51.020;6.764;2022-07-30T05:40:06;17.30;99.90
11838;DHT22;5978;51.020;6.764;2022-07-30T05:42:31;17.40;99.90
11838;DHT22;5978;51.020;6.764;2022-07-30T05:44:57;17.20;99.90
11838;DHT22;5978;51.020;6.764;2022-07-30T05:47:24;17.40;99.90
11838;DHT22;5978;51.020;6.764;2022-07-30T05:49:50;17.40;99.90
11838;DHT22;5978;51.020;6.764;2022-07-30T05:52:15;17.60;99.90
11838;DHT22;5978;51.020;6.764;2022-07-30T05:54:41;17.60;99.90
11838;DHT22;5978;51.020;6.764;2022-07-30T05:57:06;17.70;99.90
11838;DHT22;5978;51.020;6.764;2022-07-30T05:59:32;17.60;99.90
11838;DHT22;5978;51.020;6.764;2022-07-30T06:01:57;17.70;99.90
11838;DHT22;5978;51.020;6.764;2022-07-30T06:04:24;17.90;99.90
11838;DHT22;5978;51.020;6.764;2022-07-30T06:06:50;18.00;99.90
11838;DHT22;5978;51.020;6.764;2022-07-30T06:09:16;18.10;99.90
11838;DHT22;5978;51.020;6.764;2022-07-30T06:11:41;18.30;99.90
11838;DHT22;5978;51.020;6.764;2022-07-30T06:14:07;18.40;99.90
11838;DHT22;5978;51.020;6.764;2022-07-30T06:16:32;18.50;99.90
11838;DHT22;5978;51.020;6.764;2022-07-30T06:18:58;18.30;99.90
11838;DHT22;5978;51.020;6.764;2022-07-30T06:21:23;18.30;99.90
11838;DHT22;5978;51.020;6.764;2022-07-30T06:23:49;18.30;99.90
11838;DHT22;5978;51.020;6.764;2022-07-30T06:26:14;18.40;99.90
11838;DHT22;5978;51.020;6.764;2022-07-30T06:28:40;18.50;99.90
11838;DHT22;5978;51.020;6.764;2022-07-30T06:31:06;18.40;99.90
11838;DHT22;5978;51.020;6.764;2022-07-30T06:33:32;18.40;99.90
11838;DHT22;5978;51.020;6.764;2022-07-30T06:35:57;18.50;99.90
11838;DHT22;5978;51.020;6.764;2022-07-30T06:38:23;18.40;99.90
11838;DHT22;5978;51.020;6.764;2022-07-30T06:40:49;18.50;99.90
11838;DHT22;5978;51.020;6.764;2022-07-30T06:43:14;18.50;99.90
11838;DHT22;5978;51.020;6.764;2022-07-30T06:45:40;18.20;99.90
11838;DHT22;5978;51.020;6.764;2022-07-30T06:48:06;18.20;99.90
11838;DHT22;5978;51.020;6.764;2022-07-30T06:50:31;18.30;99.90
11838;DHT22;5978;51.020;6.764;2022-07-30T06:52:57;18.40;99.90
11838;DHT22;5978;51.020;6.764;2022-07-30T06:55:22;18.60;99.90
11838;DHT22;5978;51.020;6.764;2022-07-30T06:57:48;18.80;99.90
11838;DHT22;5978;51.020;6.764;2022-07-30T07:00:14;19.00;99.90
11838;DHT22;5978;51.020;6.764;2022-07-30T07:02:40;19.10;99.90
11838;DHT22;5978;51.020;6.764;2022-07-30T07:05:07;19.20;99.90
11838;DHT22;5978;51.020;6.764;2022-07-30T07:07:33;19.10;99.90
11838;DHT22;5978;51.020;6.764;2022-07-30T07:09:59;19.40;99.90
11838;DHT22;5978;51.020;6.764;2022-07-30T07:12:25;19.60;99.90
11838;DHT22;5978;51.020;6.764;2022-07-30T07:14:50;19.70;99.90
11838;DHT22;5978;51.020;6.764;2022-07-30T07:17:16;20.00;99.90
11838;DHT22;5978;51.020;6.764;2022-07-30T07:19:42;20.20;99.90
11838;DHT22;5978;51.020;6.764;2022-07-30T07:22:08;20.50;99.90
11838;DHT22;5978;51.020;6.764;2022-07-30T07:24:33;20.80;99.90
11838;DHT22;5978;51.020;6.764;2022-07-30T07:26:59;20.70;99.90
11838;DHT22;5978;51.020;6.764;2022-07-30T07:29:24;20.70;99.90
11838;DHT22;5978;51.020;6.764;2022-07-30T07:31:50;20.80;99.90
11838;DHT22;5978;51.020;6.764;2022-07-30T07:34:15;20.70;99.90
11838;DHT22;5978;51.020;6.764;2022-07-30T07:36:41;20.80;99.90
11838;DHT22;5978;51.020;6.764;2022-07-30T07:39:07;20.90;99.90
11838;DHT22;5978;51.020;6.764;2022-07-30T07:41:35;20.80;99.90
11838;DHT22;5978;51.020;6.764;2022-07-30T07:44:03;20.90;99.90
11838;DHT22;5978;51.020;6.764;2022-07-30T07:46:28;21.00;99.90
11838;DHT22;5978;51.020;6.764;2022-07-30T07:48:54;21.00;99.90
11838;DHT22;5978;51.020;6.764;2022-07-30T07:51:19;21.10;99.90
11838;DHT22;5978;51.020;6.764;2022-07-30T07:53:45;21.20;99.90
11838;DHT22;5978;51.020;6.764;2022-07-30T07:56:11;21.30;99.90
11838;DHT22;5978;51.020;6.764;2022-07-30T07:58:36;21.50;99.90
11838;DHT22;5978;51.020;6.764;2022-07-30T08:01:02;21.80;99.90
11838;DHT22;5978;51.020;6.764;2022-07-30T08:03:28;22.00;99.90
11838;DHT22;5978;51.020;6.764;2022-07-30T08:05:53;22.20;99.90
11838;DHT22;5978;51.020;6.764;2022-07-30T08:08:19;22.30;99.90
11838;DHT22;5978;51.020;6.764;2022-07-30T08:10:44;22.40;99.90
11838;DHT22;5978;51.020;6.764;2022-07-30T08:13:10;22.20;99.90
11838;DHT22;5978;51.020;6.764;2022-07-30T08:15:36;22.30;99.90
11838;DHT22;5978;51.020;6.764;2022-07-30T08:18:01;22.30;99.90
11838;DHT22;5978;51.020;6.764;2022-07-30T08:20:27;22.20;99.90
11838;DHT22;5978;51.020;6.764;2022-07-30T08:22:53;22.40;99.90
11838;DHT22;5978;51.020;6.764;2022-07-30T08:25:18;22.60;99.90
11838;DHT22;5978;51.020;6.764;2022-07-30T08:27:44;22.80;99.90
11838;DHT22;5978;51.020;6.764;2022-07-30T08:30:10;22.70;99.90
11838;DHT22;5978;51.020;6.764;2022-07-30T08:32:36;22.70;99.90
11838;DHT22;5978;51.020;6.764;2022-07-30T08:35:03;22.90;99.90
11838;DHT22;5978;51.020;6.764;2022-07-30T08:37:29;23.20;99.90
11838;DHT22;5978;51.020;6.764;2022-07-30T08:39:55;23.40;99.90
11838;DHT22;5978;51.020;6.764;2022-07-30T08:42:21;23.00;99.90
11838;DHT22;5978;51.020;6.764;2022-07-30T08:44:47;23.00;99.90
11838;DHT22;5978;51.020;6.764;2022-07-30T08:47:16;23.40;99.90
11838;DHT22;5978;51.020;6.764;2022-07-30T08:49:44;23.50;99.90
11838;DHT22;5978;51.020;6.764;2022-07-30T08:52:10;23.20;99.90
11838;DHT22;5978;51.020;6.764;2022-07-30T08:54:37;23.50;99.90
11838;DHT22;5978;51.020;6.764;2022-07-30T08:57:03;23.60;99.90
11838;DHT22;5978;51.020;6.764;2022-07-30T08:59:30;23.40;99.90
11838;DHT22;5978;51.020;6.764;2022-07-30T09:01:57;23.40;99.90
11838;DHT22;5978;51.020;6.764;2022-07-30T09:04:22;23.30;99.90
11838;DHT22;5978;51.020;6.764;2022-07-30T09:06:48;23.80;99.90
11838;DHT22;5978;51.020;6.764;2022-07-30T09:09:14;23.90;99.90
11838;DHT22;5978;51.020;6.764;2022-07-30T09:11:40;24.00;99.90
11838;DHT22;5978;51.020;6.764;2022-07-30T09:14:11;24.20;99.90
11838;DHT22;5978;51.020;6.764;2022-07-30T09:16:37;24.50;99.90
11838;DHT22;5978;51.020;6.764;2022-07-30T09:19:15;24.40;99.90
11838;DHT22;5978;51.020;6.764;2022-07-30T09:21:41;24.60;99.90
11838;DHT22;5978;51.020;6.764;2022-07-30T09:24:09;24.50;99.90
11838;DHT22;5978;51.020;6.764;2022-07-30T09:26:56;24.70;99.90
11838;DHT22;5978;51.020;6.764;2022-07-30T09:29:27;25.20;99.90
11838;DHT22;5978;51.020;6.764;2022-07-30T09:31:59;25.10;99.90
11838;DHT22;5978;51.020;6.764;2022-07-30T09:34:36;24.90;99.90
11838;DHT22;5978;51.020;6.764;2022-07-30T09:37:06;24.60;99.90
11838;DHT22;5978;51.020;6.764;2022-07-30T09:39:41;24.60;99.90
11838;DHT22;5978;51.020;6.764;2022-07-30T09:42:21;25.00;99.90
11838;DHT22;5978;51.020;6.764;2022-07-30T09:44:48;25.10;99.90
11838;DHT22;5978;51.020;6.764;2022-07-30T09:47:32;25.10;99.90
11838;DHT22;5978;51.020;6.764;2022-07-30T09:50:12;25.30;99.90
11838;DHT22;5978;51.020;6.764;2022-07-30T09:52:42;25.30;99.90
11838;DHT22;5978;51.020;6.764;2022-07-30T09:55:09;25.20;99.90
11838;DHT22;5978;51.020;6.764;2022-07-30T09:57:57;25.40;99.90
11838;DHT22;5978;51.020;6.764;2022-07-30T10:00:24;25.30;99.90
11838;DHT22;5978;51.020;6.764;2022-07-30T10:02:51;25.50;99.90
11838;DHT22;5978;51.020;6.764;2022-07-30T10:05:18;25.70;99.90
11838;DHT22;5978;51.020;6.764;2022-07-30T10:08:00;25.60;99.90
11838;DHT22;5978;51.020;6.764;2022-07-30T10:10:28;25.70;99.90
11838;DHT22;5978;51.020;6.764;2022-07-30T10:13:02;25.90;99.90
11838;DHT22;5978;51.020;6.764;2022-07-30T10:15:33;26.10;99.90
11838;DHT22;5978;51.020;6.764;2022-07-30T10:18:00;26.10;99.90
11838;DHT22;5978;51.020;6.764;2022-07-30T10:20:26;26.30;99.90
11838;DHT22;5978;51.020;6.764;2022-07-30T10:22:52;26.10;99.90
11838;DHT22;5978;51.020;6.764;2022-07-30T10:25:22;26.00;99.90
11838;DHT22;5978;51.020;6.764;2022-07-30T10:27:49;26.40;99.90
11838;DHT22;5978;51.020;6.764;2022-07-30T10:30:15;26.60;99.90
11838;DHT22;5978;51.020;6.764;2022-07-30T10:32:42;26.80;99.90
11838;DHT22;5978;51.020;6.764;2022-07-30T10:35:09;27.00;99.40
11838;DHT22;5978;51.020;6.764;2022-07-30T10:37:39;27.00;99.90
11838;DHT22;5978;51.020;6.764;2022-07-30T10:40:31;27.30;99.90
11838;DHT22;5978;51.020;6.764;2022-07-30T10:49:14;26.80;99.00
11838;DHT22;5978;51.020;6.764;2022-07-30T10:51:48;27.10;97.00
11838;DHT22;5978;51.020;6.764;2022-07-30T10:57:12;26.90;94.70
11838;DHT22;5978;51.020;6.764;2022-07-30T11:02:27;27.00;94.40
11838;DHT22;5978;51.020;6.764;2022-07-30T11:05:25;27.10;94.00
11838;DHT22;5978;51.020;6.764;2022-07-30T11:07:52;27.40;93.50
11838;DHT22;5978;51.020;6.764;2022-07-30T11:10:38;27.70;91.10
11838;DHT22;5978;51.020;6.764;2022-07-30T11:13:05;27.40;90.90
11838;DHT22;5978;51.020;6.764;2022-07-30T11:15:50;27.60;89.50
11838;DHT22;5978;51.020;6.764;2022-07-30T11:18:17;28.40;88.10
11838;DHT22;5978;51.020;6.764;2022-07-30T11:21:12;28.80;81.00
11838;DHT22;5978;51.020;6.764;2022-07-30T11:23:38;29.00;79.70
11838;DHT22;5978;51.020;6.764;2022-07-30T11:26:04;28.80;77.80
11838;DHT22;5978;51.020;6.764;2022-07-30T11:28:45;29.60;80.10
11838;DHT22;5978;51.020;6.764;2022-07-30T11:31:35;29.80;76.70
11838;DHT22;5978;51.020;6.764;2022-07-30T11:34:24;29.70;74.70
11838;DHT22;5978;51.020;6.764;2022-07-30T11:42:31;32.00;63.80
11838;DHT22;5978;51.020;6.764;2022-07-30T11:47:46;32.60;57.50
11838;DHT22;5978;51.020;6.764;2022-07-30T11:50:30;33.10;57.40
11838;DHT22;5978;51.020;6.764;2022-07-30T11:53:06;33.30;55.20
11838;DHT22;5978;51.020;6.764;2022-07-30T11:55:41;32.90;54.70
11838;DHT22;5978;51.020;6.764;2022-07-30T11:58:28;32.70;55.80
11838;DHT22;5978;51.020;6.764;2022-07-30T12:00:56;33.50;54.60
11838;DHT22;5978;51.020;6.764;2022-07-30T12:03:23;34.40;52.70
11838;DHT22;5978;51.020;6.764;2022-07-30T12:05:49;35.00;51.10
11838;DHT22;5978;51.020;6.764;2022-07-30T12:08:15;34.10;50.80
11838;DHT22;5978;51.020;6.764;2022-07-30T12:10:42;33.90;51.20
11838;DHT22;5978;51.020;6.764;2022-07-30T12:13:09;34.30;50.20
11838;DHT22;5978;51.020;6.764;2022-07-30T12:15:45;34.90;50.60
11838;DHT22;5978;51.020;6.764;2022-07-30T12:18:12;35.60;48.50
11838;DHT22;5978;51.020;6.764;2022-07-30T12:20:58;35.50;49.30
11838;DHT22;5978;51.020;6.764;2022-07-30T12:23:25;36.90;48.10
11838;DHT22;5978;51.020;6.764;2022-07-30T12:25:51;36.60;46.30
11838;DHT22;5978;51.020;6.764;2022-07-30T12:28:35;36.10;46.90
11838;DHT22;5978;51.020;6.764;2022-07-30T12:31:01;36.30;47.60
11838;DHT22;5978;51.020;6.764;2022-07-30T12:33:29;36.90;47.50
11838;DHT22;5978;51.020;6.764;2022-07-30T12:35:59;37.30;46.80
11838;DHT22;5978;51.020;6.764;2022-07-30T12:38:26;38.10;45.50
11838;DHT22;5978;51.020;6.764;2022-07-30T12:43:39;38.60;45.20
11838;DHT22;5978;51.020;6.764;2022-07-30T12:46:03;38.20;45.00
11838;DHT22;5978;51.020;6.764;2022-07-30T12:48:29;38.10;46.10
11838;DHT22;5978;51.020;6.764;2022-07-30T12:51:05;38.30;45.30
11838;DHT22;5978;51.020;6.764;2022-07-30T12:53:31;37.70;44.30
11838;DHT22;5978;51.020;6.764;2022-07-30T12:56:13;37.20;45.50
11838;DHT22;5978;51.020;6.764;2022-07-30T12:58:39;37.00;46.10
11838;DHT22;5978;51.020;6.764;2022-07-30T13:01:06;37.40;47.10
11838;DHT22;5978;51.020;6.764;2022-07-30T13:03:32;38.60;46.20
11838;DHT22;5978;51.020;6.764;2022-07-30T13:06:20;39.30;44.80
11838;DHT22;5978;51.020;6.764;2022-07-30T13:08:55;39.20;44.40
11838;DHT22;5978;51.020;6.764;2022-07-30T13:11:26;38.40;44.50
11838;DHT22;5978;51.020;6.764;2022-07-30T13:14:01;39.20;44.90
11838;DHT22;5978;51.020;6.764;2022-07-30T13:16:30;40.30;44.00
11838;DHT22;5978;51.020;6.764;2022-07-30T13:18:56;40.10;43.30
11838;DHT22;5978;51.020;6.764;2022-07-30T13:21:22;39.80;43.40
11838;DHT22;5978;51.020;6.764;2022-07-30T13:23:48;38.80;43.10
11838;DHT22;5978;51.020;6.764;2022-07-30T13:26:14;39.50;44.40
11838;DHT22;5978;51.020;6.764;2022-07-30T13:28:40;40.40;43.80
11838;DHT22;5978;51.020;6.764;2022-07-30T13:31:06;40.40;43.20
11838;DHT22;5978;51.020;6.764;2022-07-30T13:33:33;40.30;42.80
11838;DHT22;5978;51.020;6.764;2022-07-30T13:35:59;39.60;42.90
11838;DHT22;5978;51.020;6.764;2022-07-30T13:38:25;37.70;44.00
11838;DHT22;5978;51.020;6.764;2022-07-30T13:40:51;36.20;45.90
11838;DHT22;5978;51.020;6.764;2022-07-30T13:43:17;35.10;47.00
11838;DHT22;5978;51.020;6.764;2022-07-30T13:45:42;35.20;48.60
11838;DHT22;5978;51.020;6.764;2022-07-30T13:48:08;36.00;47.50
11838;DHT22;5978;51.020;6.764;2022-07-30T13:50:33;35.90;47.30
11838;DHT22;5978;51.020;6.764;2022-07-30T13:52:59;36.10;47.50
11838;DHT22;5978;51.020;6.764;2022-07-30T13:55:26;36.00;47.20
11838;DHT22;5978;51.020;6.764;2022-07-30T13:57:51;37.00;47.30
11838;DHT22;5978;51.020;6.764;2022-07-30T14:00:17;38.00;46.30
11838;DHT22;5978;51.020;6.764;2022-07-30T14:02:42;37.80;44.80
11838;DHT22;5978;51.020;6.764;2022-07-30T14:05:08;37.40;45.40
11838;DHT22;5978;51.020;6.764;2022-07-30T14:07:38;38.50;45.20
11838;DHT22;5978;51.020;6.764;2022-07-30T14:10:05;39.40;44.50
11838;DHT22;5978;51.020;6.764;2022-07-30T14:12:32;41.00;42.80
11838;DHT22;5978;51.020;6.764;2022-07-30T14:14:58;41.60;42.20
11838;DHT22;5978;51.020;6.764;2022-07-30T14:17:23;41.70;40.60
11838;DHT22;5978;51.020;6.764;2022-07-30T14:19:49;42.70;40.80
11838;DHT22;5978;51.020;6.764;2022-07-30T14:22:19;42.70;40.50
11838;DHT22;5978;51.020;6.764;2022-07-30T14:24:45;43.20;40.20
11838;DHT22;5978;51.020;6.764;2022-07-30T14:27:10;42.90;39.60
11838;DHT22;5978;51.020;6.764;2022-07-30T14:29:36;43.00;39.30
11838;DHT22;5978;51.020;6.764;2022-07-30T14:32:02;42.90;39.20
11838;DHT22;5978;51.020;6.764;2022-07-30T14:34:27;42.70;39.70
11838;DHT22;5978;51.020;6.764;2022-07-30T14:36:53;42.40;38.80
11838;DHT22;5978;51.020;6.764;2022-07-30T14:39:18;42.90;39.40
11838;DHT22;5978;51.020;6.764;2022-07-30T14:41:45;42.90;38.40
11838;DHT22;5978;51.020;6.764;2022-07-30T14:44:10;43.10;38.80
11838;DHT22;5978;51.020;6.764;2022-07-30T14:46:38;43.20;38.40
11838;DHT22;5978;51.020;6.764;2022-07-30T14:49:04;43.30;38.50
11838;DHT22;5978;51.020;6.764;2022-07-30T14:51:29;42.90;38.20
11838;DHT22;5978;51.020;6.764;2022-07-30T14:53:55;42.90;38.60
11838;DHT22;5978;51.020;6.764;2022-07-30T14:56:21;42.90;38.80
11838;DHT22;5978;51.020;6.764;2022-07-30T14:58:48;43.70;38.80
11838;DHT22;5978;51.020;6.764;2022-07-30T15:01:14;42.50;38.00
11838;DHT22;5978;51.020;6.764;2022-07-30T15:03:39;41.80;38.30
11838;DHT22;5978;51.020;6.764;2022-07-30T15:06:05;42.80;38.60
11838;DHT22;5978;51.020;6.764;2022-07-30T15:08:34;42.90;37.80
11838;DHT22;5978;51.020;6.764;2022-07-30T15:10:59;42.30;37.10
11838;DHT22;5978;51.020;6.764;2022-07-30T15:13:25;42.50;38.20
11838;DHT22;5978;51.020;6.764;2022-07-30T15:15:51;42.60;37.80
11838;DHT22;5978;51.020;6.764;2022-07-30T15:18:16;42.20;37.90
11838;DHT22;5978;51.020;6.764;2022-07-30T15:20:42;42.30;38.30
11838;DHT22;5978;51.020;6.764;2022-07-30T15:23:07;43.20;38.10
11838;DHT22;5978;51.020;6.764;2022-07-30T15:25:33;43.30;37.30
11838;DHT22;5978;51.020;6.764;2022-07-30T15:27:58;41.60;37.40
11838;DHT22;5978;51.020;6.764;2022-07-30T15:30:24;41.20;38.00
11838;DHT22;5978;51.020;6.764;2022-07-30T15:32:50;41.10;38.60
11838;DHT22;5978;51.020;6.764;2022-07-30T15:35:16;40.00;38.20
11838;DHT22;5978;51.020;6.764;2022-07-30T15:37:41;39.20;39.20
11838;DHT22;5978;51.020;6.764;2022-07-30T15:40:07;38.90;40.60
11838;DHT22;5978;51.020;6.764;2022-07-30T15:42:33;40.40;40.50
11838;DHT22;5978;51.020;6.764;2022-07-30T15:45:02;41.60;39.70
11838;DHT22;5978;51.020;6.764;2022-07-30T15:47:28;41.20;38.80
11838;DHT22;5978;51.020;6.764;2022-07-30T15:49:54;39.60;39.40
11838;DHT22;5978;51.020;6.764;2022-07-30T15:52:19;37.50;40.60
11838;DHT22;5978;51.020;6.764;2022-07-30T15:54:45;35.80;42.90
11838;DHT22;5978;51.020;6.764;2022-07-30T15:57:10;35.00;44.60
11838;DHT22;5978;51.020;6.764;2022-07-30T15:59:37;34.40;44.90
11838;DHT22;5978;51.020;6.764;2022-07-30T16:02:03;33.80;45.80
11838;DHT22;5978;51.020;6.764;2022-07-30T16:04:29;32.70;47.00
11838;DHT22;5978;51.020;6.764;2022-07-30T16:06:57;32.30;47.90
11838;DHT22;5978;51.020;6.764;2022-07-30T16:09:23;31.90;48.30
11838;DHT22;5978;51.020;6.764;2022-07-30T16:11:49;31.70;49.40
11838;DHT22;5978;51.020;6.764;2022-07-30T16:14:15;31.20;49.40
11838;DHT22;5978;51.020;6.764;2022-07-30T16:16:40;31.20;50.70
11838;DHT22;5978;51.020;6.764;2022-07-30T16:19:06;31.10;50.80